sensor_id;sensor_type;location;lat;lon;timestamp;pressure;altitude;pressure_sealevel;temperature;humidity
5883;BME280;2967;51.488;6.618;2022-12-18T00:04:20;102585.50;;;-1.11;100.00
5883;BME280;2967;51.488;6.618;2022-12-18T00:09:25;102585.47;;;-1.13;100.00
5883;BME280;2967;51.488;6.618;2022-12-18T00:14:41;102582.00;;;-1.12;100.00
5883;BME280;2967;51.488;6.618;2022-12-18T00:19:44;102581.97;;;-1.15;100.00
5883;BME280;2967;51.488;6.618;2022-12-18T00:24:46;102571.56;;;-1.16;100.00
5883;BME280;2967;51.488;6.618;2022-12-18T00:29:51;102580.38;;;-1.04;100.00
5883;BME280;2967;51.488;6.618;2022-12-18T00:34:53;102554.34;;;-1.11;100.00
5883;BME280;2967;51.488;6.618;2022-12-18T00:39:56;102567.41;;;-1.02;100.00
5883;BME280;2967;51.488;6.618;2022-12-18T00:45:00;102560.41;;;-1.09;100.00
5883;BME280;2967;51.488;6.618;2022-12-18T00:50:06;102550.06;;;-1.05;100.00
5883;BME280;2967;51.488;6.618;2022-12-18T00:55:10;102548.47;;;-0.91;100.00
5883;BME280;2967;51.488;6.618;2022-12-18T01:00:15;102568.44;;;-0.87;100.00
5883;BME280;2967;51.488;6.618;2022-12-18T01:05:17;102572.69;;;-0.93;100.00
5883;BME280;2967;51.488;6.618;2022-12-18T01:10:20;102582.22;;;-0.92;100.00
5883;BME280;2967;51.488;6.618;2022-12-18T01:15:24;102579.59;;;-0.95;100.00
5883;BME280;2967;51.488;6.618;2022-12-18T01:20:27;102577.78;;;-1.02;100.00
5883;BME280;2967;51.488;6.618;2022-12-18T01:25:31;102565.56;;;-1.12;100.00
5883;BME280;2967;51.488;6.618;2022-12-18T01:30:35;102580.25;;;-1.13;100.00
5883;BME280;2967;51.488;6.618;2022-12-18T01:35:40;102564.69;;;-1.14;100.00
5883;BME280;2967;51.488;6.618;2022-12-18T01:40:43;102561.28;;;-1.09;100.00
5883;BME280;2967;51.488;6.618;2022-12-18T01:45:47;102567.28;;;-1.14;100.00
5883;BME280;2967;51.488;6.618;2022-12-18T01:50:50;102569.78;;;-1.22;100.00
5883;BME280;2967;51.488;6.618;2022-12-18T01:55:54;102565.56;;;-1.12;100.00
5883;BME280;2967;51.488;6.618;2022-12-18T02:01:00;102566.28;;;-1.27;100.00
5883;BME280;2967;51.488;6.618;2022-12-18T02:06:12;102565.38;;;-1.29;100.00
5883;BME280;2967;51.488;6.618;2022-12-18T02:11:22;102573.19;;;-1.26;100.00
5883;BME280;2967;51.488;6.618;2022-12-18T02:16:33;102582.66;;;-1.32;100.00
5883;BME280;2967;51.488;6.618;2022-12-18T02:21:45;102561.88;;;-1.32;100.00
5883;BME280;2967;51.488;6.618;2022-12-18T02:26:56;102552.41;;;-1.27;100.00
5883;BME280;2967;51.488;6.618;2022-12-18T02:32:06;102561.00;;;-1.33;100.00
5883;BME280;2967;51.488;6.618;2022-12-18T02:37:14;102551.47;;;-1.35;100.00
5883;BME280;2967;51.488;6.618;2022-12-18T02:42:20;102560.09;;;-1.36;100.00
5883;BME280;2967;51.488;6.618;2022-12-18T02:47:24;102551.50;;;-1.31;100.00
5883;BME280;2967;51.488;6.618;2022-12-18T02:52:34;102554.97;;;-1.33;100.00
5883;BME280;2967;51.488;6.618;2022-12-18T02:57:46;102559.22;;;-1.37;100.00
5883;BME280;2967;51.488;6.618;2022-12-18T03:02:57;102559.31;;;-1.29;100.00
5883;BME280;2967;51.488;6.618;2022-12-18T03:08:06;102548.03;;;-1.34;100.00
5883;BME280;2967;51.488;6.618;2022-12-18T03:13:19;102537.53;;;-1.42;100.00
5883;BME280;2967;51.488;6.618;2022-12-18T03:18:25;102529.84;;;-1.33;100.00
5883;BME280;2967;51.488;6.618;2022-12-18T03:23:33;102525.59;;;-1.28;100.00
5883;BME280;2967;51.488;6.618;2022-12-18T03:28:43;102535.09;;;-1.28;100.00
5883;BME280;2967;51.488;6.618;2022-12-18T03:33:53;102538.56;;;-1.28;100.00
5883;BME280;2967;51.488;6.618;2022-12-18T03:39:01;102538.53;;;-1.31;100.00
5883;BME280;2967;51.488;6.618;2022-12-18T03:44:12;102535.03;;;-1.33;100.00
5883;BME280;2967;51.488;6.618;2022-12-18T03:49:23;102526.50;;;-1.24;100.00
5883;BME280;2967;51.488;6.618;2022-12-18T03:54:31;102527.38;;;-1.22;100.00
5883;BME280;2967;51.488;6.618;2022-12-18T03:59:44;102527.25;;;-1.33;100.00
5883;BME280;2967;51.488;6.618;2022-12-18T04:04:52;102525.69;;;-1.19;100.00
5883;BME280;2967;51.488;6.618;2022-12-18T04:09:58;102521.25;;;-1.27;100.00
5883;BME280;2967;51.488;6.618;2022-12-18T04:15:07;102517.72;;;-1.34;100.00
5883;BME280;2967;51.488;6.618;2022-12-18T04:20:11;102506.53;;;-1.28;100.00
5883;BME280;2967;51.488;6.618;2022-12-18T04:25:17;102507.47;;;-1.22;100.00
5883;BME280;2967;51.488;6.618;2022-12-18T04:30:41;102510.03;;;-1.25;100.00
5883;BME280;2967;51.488;6.618;2022-12-18T04:35:43;102506.66;;;-1.19;100.00
5883;BME280;2967;51.488;6.618;2022-12-18T04:40:47;102509.47;;;-0.97;100.00
5883;BME280;2967;51.488;6.618;2022-12-18T04:46:02;102503.34;;;-1.03;100.00
5883;BME280;2967;51.488;6.618;2022-12-18T04:51:06;102506.75;;;-1.07;100.00
5883;BME280;2967;51.488;6.618;2022-12-18T04:56:10;102489.44;;;-1.08;100.00
5883;BME280;2967;51.488;6.618;2022-12-18T05:01:16;102490.28;;;-1.12;100.00
5883;BME280;2967;51.488;6.618;2022-12-18T05:06:20;102479.06;;;-1.08;100.00
5883;BME280;2967;51.488;6.618;2022-12-18T05:11:22;102488.59;;;-1.06;100.00
5883;BME280;2967;51.488;6.618;2022-12-18T05:16:26;102493.81;;;-1.03;100.00
5883;BME280;2967;51.488;6.618;2022-12-18T05:21:29;102498.25;;;-0.94;100.00
5883;BME280;2967;51.488;6.618;2022-12-18T05:26:32;102494.72;;;-0.99;100.00
5883;BME280;2967;51.488;6.618;2022-12-18T05:31:36;102494.75;;;-0.96;100.00
5883;BME280;2967;51.488;6.618;2022-12-18T05:36:40;102499.03;;;-1.01;100.00
5883;BME280;2967;51.488;6.618;2022-12-18T05:41:43;102514.63;;;-1.01;100.00
5883;BME280;2967;51.488;6.618;2022-12-18T05:46:47;102538.78;;;-1.10;100.00
5883;BME280;2967;51.488;6.618;2022-12-18T05:51:50;102537.09;;;-1.02;100.00
5883;BME280;2967;51.488;6.618;2022-12-18T05:56:53;102544.03;;;-1.01;100.00
5883;BME280;2967;51.488;6.618;2022-12-18T06:01:57;102539.59;;;-1.12;100.00
5883;BME280;2967;51.488;6.618;2022-12-18T06:06:59;102557.59;;;-1.29;100.00
5883;BME280;2967;51.488;6.618;2022-12-18T06:12:02;102580.81;;;-1.39;100.00
5883;BME280;2967;51.488;6.618;2022-12-18T06:17:06;102567.97;;;-1.27;100.00
5883;BME280;2967;51.488;6.618;2022-12-18T06:22:09;102554.19;;;-1.22;100.00
5883;BME280;2967;51.488;6.618;2022-12-18T06:27:12;102546.38;;;-1.25;100.00
5883;BME280;2967;51.488;6.618;2022-12-18T06:32:16;102540.25;;;-1.31;100.00
5883;BME280;2967;51.488;6.618;2022-12-18T06:37:19;102523.00;;;-1.26;100.00
5883;BME280;2967;51.488;6.618;2022-12-18T06:42:22;102517.81;;;-1.26;100.00
5883;BME280;2967;51.488;6.618;2022-12-18T06:47:26;102510.88;;;-1.27;100.00
5883;BME280;2967;51.488;6.618;2022-12-18T06:52:31;102503.97;;;-1.27;100.00
5883;BME280;2967;51.488;6.618;2022-12-18T06:57:34;102494.53;;;-1.20;100.00
5883;BME280;2967;51.488;6.618;2022-12-18T07:02:38;102496.19;;;-1.25;100.00
5883;BME280;2967;51.488;6.618;2022-12-18T07:07:41;102497.16;;;-1.19;100.00
5883;BME280;2967;51.488;6.618;2022-12-18T07:12:45;102492.81;;;-1.15;100.00
5883;BME280;2967;51.488;6.618;2022-12-18T07:17:48;102498.03;;;-1.15;100.00
5883;BME280;2967;51.488;6.618;2022-12-18T07:22:51;102493.78;;;-1.09;100.00
5883;BME280;2967;51.488;6.618;2022-12-18T07:27:56;102495.53;;;-1.08;100.00
5883;BME280;2967;51.488;6.618;2022-12-18T07:33:00;102482.56;;;-1.05;100.00
5883;BME280;2967;51.488;6.618;2022-12-18T07:38:03;102483.41;;;-1.06;100.00
5883;BME280;2967;51.488;6.618;2022-12-18T07:43:05;102488.69;;;-1.00;100.00
5883;BME280;2967;51.488;6.618;2022-12-18T07:48:10;102459.19;;;-1.05;100.00
5883;BME280;2967;51.488;6.618;2022-12-18T07:53:13;102495.75;;;-0.82;100.00
5883;BME280;2967;51.488;6.618;2022-12-18T07:58:15;102489.69;;;-0.81;100.00
5883;BME280;2967;51.488;6.618;2022-12-18T08:03:20;102476.81;;;-0.69;100.00
5883;BME280;2967;51.488;6.618;2022-12-18T08:08:23;102455.16;;;-0.68;100.00
5883;BME280;2967;51.488;6.618;2022-12-18T08:13:26;102416.88;;;-0.93;100.00
5883;BME280;2967;51.488;6.618;2022-12-18T08:18:32;102447.41;;;-0.61;100.00
5883;BME280;2967;51.488;6.618;2022-12-18T08:23:36;102439.75;;;-0.44;100.00
5883;BME280;2967;51.488;6.618;2022-12-18T08:28:43;102431.16;;;-0.28;100.00
5883;BME280;2967;51.488;6.618;2022-12-18T08:33:49;102429.50;;;-0.13;100.00
5883;BME280;2967;51.488;6.618;2022-12-18T08:38:53;102438.19;;;-0.07;99.28
5883;BME280;2967;51.488;6.618;2022-12-18T08:43:55;102441.75;;;0.13;99.00
5883;BME280;2967;51.488;6.618;2022-12-18T08:49:17;102433.06;;;0.11;99.13
5883;BME280;2967;51.488;6.618;2022-12-18T08:54:20;102422.72;;;0.22;98.51
5883;BME280;2967;51.488;6.618;2022-12-18T08:59:22;102437.59;;;0.90;100.00
5883;BME280;2967;51.488;6.618;2022-12-18T09:04:29;102420.22;;;0.76;97.62
5883;BME280;2967;51.488;6.618;2022-12-18T09:09:32;102413.28;;;0.67;96.19
5883;BME280;2967;51.488;6.618;2022-12-18T09:14:35;102435.81;;;0.70;95.75
5883;BME280;2967;51.488;6.618;2022-12-18T09:19:39;102427.13;;;0.56;96.38
5883;BME280;2967;51.488;6.618;2022-12-18T09:24:42;102431.47;;;0.61;96.63
5883;BME280;2967;51.488;6.618;2022-12-18T09:29:45;102428.88;;;0.69;96.59
5883;BME280;2967;51.488;6.618;2022-12-18T09:34:49;102435.84;;;0.73;96.10
5883;BME280;2967;51.488;6.618;2022-12-18T09:39:51;102421.97;;;0.92;94.34
5883;BME280;2967;51.488;6.618;2022-12-18T09:44:54;102397.63;;;0.94;94.44
5883;BME280;2967;51.488;6.618;2022-12-18T09:50:01;102382.88;;;1.02;93.91
5883;BME280;2967;51.488;6.618;2022-12-18T09:55:09;102384.63;;;0.94;93.39
5883;BME280;2967;51.488;6.618;2022-12-18T10:00:17;102389.84;;;1.15;93.15
5883;BME280;2967;51.488;6.618;2022-12-18T10:05:33;102391.53;;;1.31;92.08
5883;BME280;2967;51.488;6.618;2022-12-18T10:10:42;102397.59;;;1.39;90.62
5883;BME280;2967;51.488;6.618;2022-12-18T10:16:00;102383.69;;;1.49;90.63
5883;BME280;2967;51.488;6.618;2022-12-18T10:21:10;102357.59;;;1.49;90.27
5883;BME280;2967;51.488;6.618;2022-12-18T10:26:14;102353.22;;;1.60;90.19
5883;BME280;2967;51.488;6.618;2022-12-18T10:31:20;102339.28;;;1.64;89.14
5883;BME280;2967;51.488;6.618;2022-12-18T10:36:26;102341.84;;;1.78;88.79
5883;BME280;2967;51.488;6.618;2022-12-18T10:41:29;102341.84;;;1.84;88.65
5883;BME280;2967;51.488;6.618;2022-12-18T10:46:33;102332.16;;;2.04;88.12
5883;BME280;2967;51.488;6.618;2022-12-18T10:51:38;102332.97;;;2.09;87.04
5883;BME280;2967;51.488;6.618;2022-12-18T10:56:41;102314.72;;;2.09;87.05
5883;BME280;2967;51.488;6.618;2022-12-18T11:01:47;102313.84;;;2.10;88.18
5883;BME280;2967;51.488;6.618;2022-12-18T11:07:00;102312.06;;;2.15;87.69
5883;BME280;2967;51.488;6.618;2022-12-18T11:12:05;102307.53;;;2.44;88.25
5883;BME280;2967;51.488;6.618;2022-12-18T11:17:19;102295.38;;;2.35;87.77
5883;BME280;2967;51.488;6.618;2022-12-18T11:22:29;102297.06;;;2.45;87.71
5883;BME280;2967;51.488;6.618;2022-12-18T11:27:33;102284.84;;;2.48;87.51
5883;BME280;2967;51.488;6.618;2022-12-18T11:32:37;102267.44;;;2.49;88.17
5883;BME280;2967;51.488;6.618;2022-12-18T11:37:46;102269.97;;;2.58;87.77
5883;BME280;2967;51.488;6.618;2022-12-18T11:42:54;102250.78;;;2.62;88.39
5883;BME280;2967;51.488;6.618;2022-12-18T11:48:03;102247.28;;;2.63;88.29
5883;BME280;2967;51.488;6.618;2022-12-18T11:53:11;102259.44;;;2.64;88.06
5883;BME280;2967;51.488;6.618;2022-12-18T11:58:25;102245.47;;;2.69;87.40
5883;BME280;2967;51.488;6.618;2022-12-18T12:03:56;102240.25;;;2.71;88.13
5883;BME280;2967;51.488;6.618;2022-12-18T12:09:10;102246.22;;;2.82;87.22
5883;BME280;2967;51.488;6.618;2022-12-18T12:14:30;102242.75;;;2.80;86.72
5883;BME280;2967;51.488;6.618;2022-12-18T12:19:41;102220.97;;;2.82;86.51
5883;BME280;2967;51.488;6.618;2022-12-18T12:30:20;102228.75;;;2.87;85.90
5883;BME280;2967;51.488;6.618;2022-12-18T12:35:34;102198.34;;;2.78;86.35
5883;BME280;2967;51.488;6.618;2022-12-18T12:40:46;102196.56;;;2.83;86.99
5883;BME280;2967;51.488;6.618;2022-12-18T12:45:58;102165.41;;;2.65;86.75
5883;BME280;2967;51.488;6.618;2022-12-18T12:51:09;102193.91;;;2.86;86.62
5883;BME280;2967;51.488;6.618;2022-12-18T12:56:18;102208.00;;;2.72;85.90
5883;BME280;2967;51.488;6.618;2022-12-18T13:01:28;102203.72;;;2.68;87.48
5883;BME280;2967;51.488;6.618;2022-12-18T13:06:40;102188.75;;;2.82;87.23
5883;BME280;2967;51.488;6.618;2022-12-18T13:11:48;102175.63;;;2.86;86.62
5883;BME280;2967;51.488;6.618;2022-12-18T13:17:16;102173.84;;;2.88;87.00
5883;BME280;2967;51.488;6.618;2022-12-18T13:22:30;102156.50;;;2.83;87.60
5883;BME280;2967;51.488;6.618;2022-12-18T13:27:57;102145.25;;;2.78;87.33
5883;BME280;2967;51.488;6.618;2022-12-18T13:33:34;102128.50;;;2.94;84.51
5883;BME280;2967;51.488;6.618;2022-12-18T13:39:31;102128.44;;;2.98;83.76
5883;BME280;2967;51.488;6.618;2022-12-18T13:58:13;102100.84;;;2.78;84.76
5883;BME280;2967;51.488;6.618;2022-12-18T14:03:24;102106.13;;;2.73;85.11
5883;BME280;2967;51.488;6.618;2022-12-18T14:08:33;102104.41;;;2.69;86.09
5883;BME280;2967;51.488;6.618;2022-12-18T14:20:27;102081.78;;;2.70;84.99
5883;BME280;2967;51.488;6.618;2022-12-18T14:25:31;102066.09;;;2.68;85.37
5883;BME280;2967;51.488;6.618;2022-12-18T14:30:36;102065.28;;;2.66;84.90
5883;BME280;2967;51.488;6.618;2022-12-18T14:35:51;102070.34;;;2.80;84.15
5883;BME280;2967;51.488;6.618;2022-12-18T14:40:59;102062.81;;;2.54;85.38
5883;BME280;2967;51.488;6.618;2022-12-18T14:46:03;102083.66;;;2.59;85.68
5883;BME280;2967;51.488;6.618;2022-12-18T14:51:15;102054.16;;;2.49;86.74
5883;BME280;2967;51.488;6.618;2022-12-18T14:56:21;102061.94;;;2.54;86.95
5883;BME280;2967;51.488;6.618;2022-12-18T15:01:26;102061.09;;;2.53;86.95
5883;BME280;2967;51.488;6.618;2022-12-18T15:06:33;102055.81;;;2.58;87.25
5883;BME280;2967;51.488;6.618;2022-12-18T15:11:46;102010.53;;;2.59;93.86
5883;BME280;2967;51.488;6.618;2022-12-18T15:16:51;102042.25;;;2.94;86.22
5883;BME280;2967;51.488;6.618;2022-12-18T15:21:56;102032.19;;;2.67;86.67
5883;BME280;2967;51.488;6.618;2022-12-18T15:27:20;102020.94;;;2.62;86.27
5883;BME280;2967;51.488;6.618;2022-12-18T15:32:23;102030.69;;;2.47;86.65
5883;BME280;2967;51.488;6.618;2022-12-18T15:37:27;102046.50;;;2.36;87.70
5883;BME280;2967;51.488;6.618;2022-12-18T15:42:30;102041.31;;;2.33;88.25
5883;BME280;2967;51.488;6.618;2022-12-18T15:48:04;102040.41;;;2.36;87.96
5883;BME280;2967;51.488;6.618;2022-12-18T15:53:09;102025.75;;;2.24;88.17
5883;BME280;2967;51.488;6.618;2022-12-18T15:58:11;102039.66;;;2.26;88.19
5883;BME280;2967;51.488;6.618;2022-12-18T16:03:15;102037.09;;;2.22;88.97
5883;BME280;2967;51.488;6.618;2022-12-18T16:08:20;102052.84;;;2.13;89.03
5883;BME280;2967;51.488;6.618;2022-12-18T16:13:24;102036.22;;;2.20;88.92
5883;BME280;2967;51.488;6.618;2022-12-18T16:18:27;102044.84;;;2.29;89.14
5883;BME280;2967;51.488;6.618;2022-12-18T16:23:32;102034.50;;;2.20;89.48
5883;BME280;2967;51.488;6.618;2022-12-18T16:28:34;102037.19;;;2.11;89.95
5883;BME280;2967;51.488;6.618;2022-12-18T16:33:37;102018.09;;;2.08;89.76
5883;BME280;2967;51.488;6.618;2022-12-18T16:38:41;102011.06;;;2.16;90.02
5883;BME280;2967;51.488;6.618;2022-12-18T16:43:44;102012.88;;;2.09;90.81
5883;BME280;2967;51.488;6.618;2022-12-18T16:48:56;102014.66;;;2.04;91.12
5883;BME280;2967;51.488;6.618;2022-12-18T16:54:00;102006.03;;;2.01;91.91
5883;BME280;2967;51.488;6.618;2022-12-18T16:59:10;101990.47;;;1.90;91.94
5883;BME280;2967;51.488;6.618;2022-12-18T17:04:13;101988.69;;;1.92;92.39
5883;BME280;2967;51.488;6.618;2022-12-18T17:09:19;101978.31;;;1.91;93.17
5883;BME280;2967;51.488;6.618;2022-12-18T17:14:23;101975.00;;;1.72;93.70
5883;BME280;2967;51.488;6.618;2022-12-18T17:19:26;101966.19;;;1.82;94.03
5883;BME280;2967;51.488;6.618;2022-12-18T17:24:31;101973.97;;;1.85;94.83
5883;BME280;2967;51.488;6.618;2022-12-18T17:29:36;101939.47;;;1.62;94.87
5883;BME280;2967;51.488;6.618;2022-12-18T17:34:47;101972.31;;;1.80;95.70
5883;BME280;2967;51.488;6.618;2022-12-18T17:39:51;101968.94;;;1.72;96.03
5883;BME280;2967;51.488;6.618;2022-12-18T17:44:54;101964.56;;;1.74;96.66
5883;BME280;2967;51.488;6.618;2022-12-18T17:49:57;101974.88;;;1.84;96.50
5883;BME280;2967;51.488;6.618;2022-12-18T17:55:01;101988.94;;;1.70;96.96
5883;BME280;2967;51.488;6.618;2022-12-18T18:00:04;101989.72;;;1.79;98.08
5883;BME280;2967;51.488;6.618;2022-12-18T18:05:10;101990.69;;;1.69;97.61
5883;BME280;2967;51.488;6.618;2022-12-18T18:10:16;101995.94;;;1.65;98.16
5883;BME280;2967;51.488;6.618;2022-12-18T18:15:19;101992.53;;;1.57;100.00
5883;BME280;2967;51.488;6.618;2022-12-18T18:20:22;102002.06;;;1.61;98.73
5883;BME280;2967;51.488;6.618;2022-12-18T18:25:26;101999.50;;;1.55;99.40
5883;BME280;2967;51.488;6.618;2022-12-18T18:30:29;101983.78;;;1.62;98.51
5883;BME280;2967;51.488;6.618;2022-12-18T18:35:32;101989.03;;;1.61;98.83
5883;BME280;2967;51.488;6.618;2022-12-18T18:40:59;101996.78;;;1.68;98.39
5883;BME280;2967;51.488;6.618;2022-12-18T18:46:05;101969.19;;;1.43;98.49
5883;BME280;2967;51.488;6.618;2022-12-18T18:51:12;101964.09;;;1.31;98.65
5883;BME280;2967;51.488;6.618;2022-12-18T18:56:24;101993.41;;;1.54;98.66
5883;BME280;2967;51.488;6.618;2022-12-18T19:01:52;101993.41;;;1.56;98.92
5883;BME280;2967;51.488;6.618;2022-12-18T19:06:55;101987.31;;;1.57;98.53
5883;BME280;2967;51.488;6.618;2022-12-18T19:11:59;101991.78;;;1.44;98.95
5883;BME280;2967;51.488;6.618;2022-12-18T19:17:19;101892.34;;;0.93;98.88
5883;BME280;2967;51.488;6.618;2022-12-18T19:22:30;101990.81;;;1.54;99.36
5883;BME280;2967;51.488;6.618;2022-12-18T19:27:34;101975.28;;;1.42;99.55
5883;BME280;2967;51.488;6.618;2022-12-18T19:32:39;101945.75;;;1.42;99.43
5883;BME280;2967;51.488;6.618;2022-12-18T19:37:42;101954.25;;;1.62;98.92
5883;BME280;2967;51.488;6.618;2022-12-18T19:42:46;101962.16;;;1.51;99.30
5883;BME280;2967;51.488;6.618;2022-12-18T19:47:49;101904.09;;;1.36;99.19
5883;BME280;2967;51.488;6.618;2022-12-18T19:52:52;101947.97;;;2.50;100.00
5883;BME280;2967;51.488;6.618;2022-12-18T19:57:57;101903.22;;;3.25;93.86
5883;BME280;2967;51.488;6.618;2022-12-18T20:03:00;101953.13;;;2.56;94.10
5883;BME280;2967;51.488;6.618;2022-12-18T20:08:18;101956.03;;;2.32;95.68
5883;BME280;2967;51.488;6.618;2022-12-18T20:13:23;101971.06;;;2.12;96.31
5883;BME280;2967;51.488;6.618;2022-12-18T20:18:28;101977.31;;;1.99;98.29
5883;BME280;2967;51.488;6.618;2022-12-18T20:23:31;101979.09;;;1.97;97.75
5883;BME280;2967;51.488;6.618;2022-12-18T20:28:38;101965.13;;;2.01;97.95
5883;BME280;2967;51.488;6.618;2022-12-18T20:33:41;101985.25;;;1.92;98.19
5883;BME280;2967;51.488;6.618;2022-12-18T20:38:50;101993.13;;;1.86;98.69
5883;BME280;2967;51.488;6.618;2022-12-18T20:44:02;101986.09;;;1.92;99.00
5883;BME280;2967;51.488;6.618;2022-12-18T20:49:05;101908.34;;;1.46;99.29
5883;BME280;2967;51.488;6.618;2022-12-18T20:54:07;101942.94;;;1.61;99.08
5883;BME280;2967;51.488;6.618;2022-12-18T20:59:14;101993.16;;;1.83;98.72
5883;BME280;2967;51.488;6.618;2022-12-18T21:04:16;101978.22;;;1.98;98.70
5883;BME280;2967;51.488;6.618;2022-12-18T21:09:20;101976.59;;;1.85;98.76
5883;BME280;2967;51.488;6.618;2022-12-18T21:14:26;101977.31;;;1.99;98.78
5883;BME280;2967;51.488;6.618;2022-12-18T21:19:29;101981.69;;;1.97;99.19
5883;BME280;2967;51.488;6.618;2022-12-18T21:24:32;101981.66;;;2.00;99.16
5883;BME280;2967;51.488;6.618;2022-12-18T21:29:36;101975.56;;;2.03;99.18
5883;BME280;2967;51.488;6.618;2022-12-18T21:34:40;101979.97;;;1.96;99.28
5883;BME280;2967;51.488;6.618;2022-12-18T21:39:48;101966.84;;;2.02;99.12
5883;BME280;2967;51.488;6.618;2022-12-18T21:44:53;101967.88;;;1.88;100.00
5883;BME280;2967;51.488;6.618;2022-12-18T21:49:55;101961.75;;;1.92;100.00
5883;BME280;2967;51.488;6.618;2022-12-18T21:55:00;101951.19;;;2.02;100.00
5883;BME280;2967;51.488;6.618;2022-12-18T22:00:12;101942.47;;;2.06;100.00
5883;BME280;2967;51.488;6.618;2022-12-18T22:05:20;101902.59;;;1.92;100.00
5883;BME280;2967;51.488;6.618;2022-12-18T22:10:26;101918.94;;;2.11;100.00
5883;BME280;2967;51.488;6.618;2022-12-18T22:15:30;101915.44;;;2.10;100.00
5883;BME280;2967;51.488;6.618;2022-12-18T22:20:33;101896.41;;;2.02;100.00
5883;BME280;2967;51.488;6.618;2022-12-18T22:25:35;101896.38;;;2.04;100.00
5883;BME280;2967;51.488;6.618;2022-12-18T22:30:41;101891.13;;;2.05;100.00
5883;BME280;2967;51.488;6.618;2022-12-18T22:35:44;101884.06;;;2.13;100.00
5883;BME280;2967;51.488;6.618;2022-12-18T22:40:48;101866.81;;;2.05;100.00
5883;BME280;2967;51.488;6.618;2022-12-18T22:45:52;101871.06;;;2.12;100.00
5883;BME280;2967;51.488;6.618;2022-12-18T22:50:55;101861.50;;;2.11;100.00
5883;BME280;2967;51.488;6.618;2022-12-18T22:56:00;101822.69;;;1.87;100.00
5883;BME280;2967;51.488;6.618;2022-12-18T23:01:05;101840.63;;;2.11;100.00
5883;BME280;2967;51.488;6.618;2022-12-18T23:06:10;101834.72;;;1.97;100.00
5883;BME280;2967;51.488;6.618;2022-12-18T23:11:13;101825.91;;;2.05;100.00
5883;BME280;2967;51.488;6.618;2022-12-18T23:16:20;101815.44;;;2.08;100.00
5883;BME280;2967;51.488;6.618;2022-12-18T23:21:23;101817.94;;;2.14;100.00
5883;BME280;2967;51.488;6.618;2022-12-18T23:26:26;101813.41;;;2.27;100.00
5883;BME280;2967;51.488;6.618;2022-12-18T23:31:32;101808.25;;;2.22;100.00
5883;BME280;2967;51.488;6.618;2022-12-18T23:36:35;101797.75;;;2.28;100.00
5883;BME280;2967;51.488;6.618;2022-12-18T23:41:47;101787.25;;;2.30;100.00
5883;BME280;2967;51.488;6.618;2022-12-18T23:46:51;101751.91;;;2.11;100.00
5883;BME280;2967;51.488;6.618;2022-12-18T23:51:54;101760.47;;;2.19;100.00
5883;BME280;2967;51.488;6.618;2022-12-18T23:56:56;101762.25;;;2.15;100.00
